Taiheimaru — JM6135 — position and weather

sailwx.info

Track history (hours):
 
Tides and Currents Weather Stations Pressure Air Temp Water Temp Dewpoint Dewpoint Depression Visibility Wind Speed Wind Dir Waves Ship Positions

Taiheimaru

Last reported at 2014-Sep-19 04:22 UTC. Time now 2014-Sep-20 01:59 UTC.
Position N 34°36' E 135°04'.

Length 78 m.

Type: Cargo ship. MMSI: 431400082.

Date/timePositionNaut miles runAvg speedWind from/ knotsBaromVisibWave heightAir tempDewpointWater temp
2014-Sep-19 04:22N 34°36' E 135°04'911.1
2014-Sep-19 03:33N 34°37' E 135°15'8 7.1
2014-Sep-19 02:23N 34°38' E 135°25'1 1.0
2014-Sep-19 01:33N 34°37' E 135°24'8 7.4
2014-Sep-19 00:27N 34°39' E 135°14'0 0.0
2014-Sep-18 23:28N 34°39' E 135°14'3 3.2
2014-Sep-18 22:32N 34°37' E 135°13'138 9.2
2014-Sep-18 07:33N 34°21' E 132°26'6 6.1
2014-Sep-18 06:33N 34°16' E 132°21'134 7.0
2014-Sep-17 11:25N 34°37' E 135°02'1011.0
2014-Sep-17 10:33N 34°38' E 135°14'2 1.9
2014-Sep-17 09:32N 34°39' E 135°15'0 0.0
2014-Sep-17 08:32N 34°39' E 135°15'0 0.0
2014-Sep-17 07:29N 34°39' E 135°15'0 0.0
2014-Sep-17 06:32N 34°39' E 135°15'2 2.3
2014-Sep-17 05:33N 34°41' E 135°13'0 0.3
2014-Sep-17 04:29N 34°41' E 135°12'0 0.0
2014-Sep-17 03:29N 34°41' E 135°12'0 0.0
2014-Sep-17 02:17N 34°41' E 135°12'0 0.0
2014-Sep-17 01:30N 34°41' E 135°12'0 0.0
2014-Sep-17 00:33N 34°41' E 135°12'4 4.0
2014-Sep-16 23:33N 34°37' E 135°13'11 0.3
2014-Sep-15 06:29N 34°38' E 134°59'1010.6
2014-Sep-15 05:33N 34°36' E 135°11'4 4.1
2014-Sep-15 04:32N 34°40' E 135°14'0 0.0
2014-Sep-15 03:26N 34°40' E 135°14'0 0.0
2014-Sep-15 02:32N 34°40' E 135°14'1 1.3
2014-Sep-15 01:32N 34°38' E 135°15'0 0.0
2014-Sep-15 00:32N 34°38' E 135°15'5 5.2
2014-Sep-14 23:33N 34°36' E 135°10'9 0.2
2014-Sep-13 02:24N 34°38' E 134°59'1011.2
2014-Sep-13 01:31N 34°37' E 135°11'4 3.8
2014-Sep-13 00:32N 34°40' E 135°14'0 0.0
2014-Sep-12 23:33N 34°40' E 135°14'2 2.0
2014-Sep-12 22:27N 34°41' E 135°12'0 0.0
2014-Sep-12 21:30N 34°41' E 135°12'0 0.0
2014-Sep-12 20:30N 34°41' E 135°12'0 0.0
2014-Sep-12 19:30N 34°41' E 135°12'0 0.0
2014-Sep-12 18:30N 34°41' E 135°12'0 0.0
2014-Sep-12 17:30N 34°41' E 135°12'0 0.0
2014-Sep-12 16:30N 34°41' E 135°12'0 0.0
2014-Sep-12 15:33N 34°41' E 135°12'0 0.0
2014-Sep-12 14:24N 34°41' E 135°12'0 0.0
2014-Sep-12 13:33N 34°41' E 135°12'0 0.0
2014-Sep-12 12:33N 34°41' E 135°12'0 0.0
2014-Sep-12 11:33N 34°41' E 135°12'0 0.0
2014-Sep-12 10:33N 34°41' E 135°12'0 0.0
2014-Sep-12 09:30N 34°41' E 135°12'0 0.0
2014-Sep-12 08:33N 34°41' E 135°12'0 0.0
2014-Sep-12 07:33N 34°41' E 135°12'0 0.0
2014-Sep-12 06:30N 34°41' E 135°12'0 0.0
2014-Sep-12 05:33N 34°41' E 135°12'2 2.2
2014-Sep-12 04:33N 34°40' E 135°14'0 0.0
2014-Sep-12 03:30N 34°40' E 135°14'0 0.1
2014-Sep-12 02:33N 34°39' E 135°15'1 1.1
2014-Sep-12 01:30N 34°38' E 135°15'0 0.0
2014-Sep-12 00:25N 34°38' E 135°15'0 0.0
2014-Sep-11 23:25N 34°38' E 135°15'0 0.0
2014-Sep-11 22:19N 34°38' E 135°15'0 0.1
2014-Sep-11 21:20N 34°38' E 135°15'1 1.5
2014-Sep-11 20:33N 34°38' E 135°14'8 0.2
2014-Sep-10 05:33N 34°36' E 135°04'10 9.6
2014-Sep-10 04:33N 34°39' E 135°15'1 0.8
2014-Sep-10 03:24N 34°40' E 135°14'0 0.0
2014-Sep-10 02:30N 34°40' E 135°14'0 0.0
2014-Sep-10 01:27N 34°40' E 135°14'2 2.4
2014-Sep-10 00:33N 34°41' E 135°13'0 0.0
2014-Sep-09 23:30N 34°41' E 135°13'0 0.0
2014-Sep-09 22:30N 34°41' E 135°13'4 4.0
2014-Sep-09 21:33N 34°38' E 135°14'  
Track history (hours):
 
Tides and Currents Weather Stations Pressure Air Temp Water Temp Dewpoint Dewpoint Depression Visibility Wind Speed Wind Dir Waves Ship Positions

Taiheimaru

Last reported at 2014-Sep-19 04:22 UTC. Time now 2014-Sep-20 01:59 UTC.
Position N 34°36' E 135°04'.

Length 78 m.

Type: Cargo ship. MMSI: 431400082.

Date/timePositionNaut miles runAvg speedWind from/ knotsBaromVisibWave heightAir tempDewpointWater temp
2014-Sep-19 04:22N 34°36' E 135°04'911.1
2014-Sep-19 03:33N 34°37' E 135°15'8 7.1
2014-Sep-19 02:23N 34°38' E 135°25'1 1.0
2014-Sep-19 01:33N 34°37' E 135°24'8 7.4
2014-Sep-19 00:27N 34°39' E 135°14'0 0.0
2014-Sep-18 23:28N 34°39' E 135°14'3 3.2
2014-Sep-18 22:32N 34°37' E 135°13'138 9.2
2014-Sep-18 07:33N 34°21' E 132°26'6 6.1
2014-Sep-18 06:33N 34°16' E 132°21'134 7.0
2014-Sep-17 11:25N 34°37' E 135°02'1011.0
2014-Sep-17 10:33N 34°38' E 135°14'2 1.9
2014-Sep-17 09:32N 34°39' E 135°15'0 0.0
2014-Sep-17 08:32N 34°39' E 135°15'0 0.0
2014-Sep-17 07:29N 34°39' E 135°15'0 0.0
2014-Sep-17 06:32N 34°39' E 135°15'2 2.3
2014-Sep-17 05:33N 34°41' E 135°13'0 0.3
2014-Sep-17 04:29N 34°41' E 135°12'0 0.0
2014-Sep-17 03:29N 34°41' E 135°12'0 0.0
2014-Sep-17 02:17N 34°41' E 135°12'0 0.0
2014-Sep-17 01:30N 34°41' E 135°12'0 0.0
2014-Sep-17 00:33N 34°41' E 135°12'4 4.0
2014-Sep-16 23:33N 34°37' E 135°13'11 0.3
2014-Sep-15 06:29N 34°38' E 134°59'1010.6
2014-Sep-15 05:33N 34°36' E 135°11'4 4.1
2014-Sep-15 04:32N 34°40' E 135°14'0 0.0
2014-Sep-15 03:26N 34°40' E 135°14'0 0.0
2014-Sep-15 02:32N 34°40' E 135°14'1 1.3
2014-Sep-15 01:32N 34°38' E 135°15'0 0.0
2014-Sep-15 00:32N 34°38' E 135°15'5 5.2
2014-Sep-14 23:33N 34°36' E 135°10'9 0.2
2014-Sep-13 02:24N 34°38' E 134°59'1011.2
2014-Sep-13 01:31N 34°37' E 135°11'4 3.8
2014-Sep-13 00:32N 34°40' E 135°14'0 0.0
2014-Sep-12 23:33N 34°40' E 135°14'2 2.0
2014-Sep-12 22:27N 34°41' E 135°12'0 0.0
2014-Sep-12 21:30N 34°41' E 135°12'0 0.0
2014-Sep-12 20:30N 34°41' E 135°12'0 0.0
2014-Sep-12 19:30N 34°41' E 135°12'0 0.0
2014-Sep-12 18:30N 34°41' E 135°12'0 0.0
2014-Sep-12 17:30N 34°41' E 135°12'0 0.0
2014-Sep-12 16:30N 34°41' E 135°12'0 0.0
2014-Sep-12 15:33N 34°41' E 135°12'0 0.0
2014-Sep-12 14:24N 34°41' E 135°12'0 0.0
2014-Sep-12 13:33N 34°41' E 135°12'0 0.0
2014-Sep-12 12:33N 34°41' E 135°12'0 0.0
2014-Sep-12 11:33N 34°41' E 135°12'0 0.0
2014-Sep-12 10:33N 34°41' E 135°12'0 0.0
2014-Sep-12 09:30N 34°41' E 135°12'0 0.0
2014-Sep-12 08:33N 34°41' E 135°12'0 0.0
2014-Sep-12 07:33N 34°41' E 135°12'0 0.0
2014-Sep-12 06:30N 34°41' E 135°12'0 0.0
2014-Sep-12 05:33N 34°41' E 135°12'2 2.2
2014-Sep-12 04:33N 34°40' E 135°14'0 0.0
2014-Sep-12 03:30N 34°40' E 135°14'0 0.1
2014-Sep-12 02:33N 34°39' E 135°15'1 1.1
2014-Sep-12 01:30N 34°38' E 135°15'0 0.0
2014-Sep-12 00:25N 34°38' E 135°15'0 0.0
2014-Sep-11 23:25N 34°38' E 135°15'0 0.0
2014-Sep-11 22:19N 34°38' E 135°15'0 0.1
2014-Sep-11 21:20N 34°38' E 135°15'1 1.5
2014-Sep-11 20:33N 34°38' E 135°14'8 0.2
2014-Sep-10 05:33N 34°36' E 135°04'10 9.6
2014-Sep-10 04:33N 34°39' E 135°15'1 0.8
2014-Sep-10 03:24N 34°40' E 135°14'0 0.0
2014-Sep-10 02:30N 34°40' E 135°14'0 0.0
2014-Sep-10 01:27N 34°40' E 135°14'2 2.4
2014-Sep-10 00:33N 34°41' E 135°13'0 0.0
2014-Sep-09 23:30N 34°41' E 135°13'0 0.0
2014-Sep-09 22:30N 34°41' E 135°13'4 4.0
2014-Sep-09 21:33N 34°38' E 135°14'  

Dump ship's entire track history